Tzoanna Vi — SYHY — position and weather

sailwx.info

Track history (hours):
 
Tides and Currents Weather Stations Pressure Air Temp Water Temp Dewpoint Dewpoint Depression Visibility Wind Speed Wind Dir Waves Ship Positions

Tzoanna Vi

Last reported at 2016-May-21 17:21 UTC. Time now 2016-May-24 17:46 UTC.
Position N 38°25' E 023°37'.

Length 84 m; draft 3.6 m.

Type: Cargo ship. MMSI: 237991700.

Date/timePositionNaut miles runAvg speedWind from/ knotsBaromVisibWave heightAir tempDewpointWater temp
2016-May-21 17:21N 38°25' E 023°37'8 8.2
2016-May-21 16:22N 38°22' E 023°47'4 0.3
2016-May-21 02:27N 38°22' E 023°51'9 9.5
2016-May-21 01:33N 38°23' E 023°40'  
2016-May-16 17:31N 38°23' E 023°41'8 8.0
2016-May-16 16:33N 38°22' E 023°51'18 0.6
2016-May-15 11:18N 38°08' E 024°05'810.7
2016-May-15 10:33N 38°00' E 024°06'1310.7
2016-May-15 09:21N 37°47' E 024°06'1010.7
2016-May-15 08:23N 37°37' E 024°03'910.5
2016-May-15 07:33N 37°29' E 023°59'10 9.9
2016-May-15 06:33N 37°20' E 023°53'1010.2
2016-May-15 05:32N 37°11' E 023°47'1210.2
2016-May-15 04:21N 37°01' E 023°40'810.1
2016-May-15 03:33N 36°54' E 023°35'1010.1
2016-May-15 02:33N 36°45' E 023°29'1010.1
2016-May-15 01:33N 36°36' E 023°22'2 0.1
2016-May-13 19:06N 36°34' E 023°22'4 8.1
2016-May-13 18:33N 36°38' E 023°25'8 7.7
2016-May-13 17:33N 36°44' E 023°30'8 7.6
2016-May-13 16:33N 36°51' E 023°35'8 7.7
2016-May-13 15:33N 36°57' E 023°41'12 8.0
2016-May-13 14:04N 37°07' E 023°49'47 8.5
2016-May-13 08:29N 37°46' E 024°23'9 8.9
2016-May-13 07:26N 37°53' E 024°30'  
Track history (hours):
 
Tides and Currents Weather Stations Pressure Air Temp Water Temp Dewpoint Dewpoint Depression Visibility Wind Speed Wind Dir Waves Ship Positions

Tzoanna Vi

Last reported at 2016-May-21 17:21 UTC. Time now 2016-May-24 17:46 UTC.
Position N 38°25' E 023°37'.

Length 84 m; draft 3.6 m.

Type: Cargo ship. MMSI: 237991700.

Date/timePositionNaut miles runAvg speedWind from/ knotsBaromVisibWave heightAir tempDewpointWater temp
2016-May-21 17:21N 38°25' E 023°37'8 8.2
2016-May-21 16:22N 38°22' E 023°47'4 0.3
2016-May-21 02:27N 38°22' E 023°51'9 9.5
2016-May-21 01:33N 38°23' E 023°40'  
2016-May-16 17:31N 38°23' E 023°41'8 8.0
2016-May-16 16:33N 38°22' E 023°51'18 0.6
2016-May-15 11:18N 38°08' E 024°05'810.7
2016-May-15 10:33N 38°00' E 024°06'1310.7
2016-May-15 09:21N 37°47' E 024°06'1010.7
2016-May-15 08:23N 37°37' E 024°03'910.5
2016-May-15 07:33N 37°29' E 023°59'10 9.9
2016-May-15 06:33N 37°20' E 023°53'1010.2
2016-May-15 05:32N 37°11' E 023°47'1210.2
2016-May-15 04:21N 37°01' E 023°40'810.1
2016-May-15 03:33N 36°54' E 023°35'1010.1
2016-May-15 02:33N 36°45' E 023°29'1010.1
2016-May-15 01:33N 36°36' E 023°22'2 0.1
2016-May-13 19:06N 36°34' E 023°22'4 8.1
2016-May-13 18:33N 36°38' E 023°25'8 7.7
2016-May-13 17:33N 36°44' E 023°30'8 7.6
2016-May-13 16:33N 36°51' E 023°35'8 7.7
2016-May-13 15:33N 36°57' E 023°41'12 8.0
2016-May-13 14:04N 37°07' E 023°49'47 8.5
2016-May-13 08:29N 37°46' E 024°23'9 8.9
2016-May-13 07:26N 37°53' E 024°30'  

Dump ship's entire track history